Terminal Aerodrome Forecast
Issued by NWS Corpus Christi, TX

Home | Current Version | Previous Version | Text Only | Print | Product List | Glossary On
Versions: 1 2 3 4 5 6 7 8 9 10 11 12
000
FTUS44 KCRP 212335
TAFCRP
TAF
KCRP 212335Z 2200/2224 14015G20KT P6SM SCT030 BKN250
     FM220600 14006KT P6SM FEW015 SCT250
     FM221400 16012KT P6SM VCSH BKN025 BKN050
     FM221900 13015G21KT P6SM SCT035 BKN050=

USA.gov is the U.S. government's official web portal to all federal, state and local government web resources and services.